Tea, South Dakota
Current Conditions -  °F | °C
As of 2:32 AM on Friday 19 Dec 2014 (Local Time) from KFSD Reporting Station
Overcast Overcast  
Wind Chill: -7°   Ceiling: 1400
Heat Index: -2°   Visibility: 8mi
Dew Point: -4°   Wind: 8mph
Humidity: 88%   Direction: 200°SSW
Pressure: 30.17"   Gusts: NA
Location:  43.45°N, 96.84°W
Report Text: KFSD 190832Z AUTO 20007KT 8SM OVC014 M02/M04 A3017 RMK AO2 T10221039
Loading
Personal Weather Stations






























Interactive Weather Map New forecast layout! Learn more

10-Day Weather Forecast

Advertisements
Track Severe Weather on mobile